Time;durP1;ratioP1;P1;durP2;ratioP2;P2;SDS_P1;SDS_P2;PMS_P1;PMS_P2;Temp;Humidity;BMP_temperature;BMP_pressure;BME280_temperature;BME280_humidity;BME280_pressure;Samples;Min_cycle;Max_cycle;Signal;HPM_P1;HPM_P2
2021/12/06 00:00:46;;;;;;;4.95;4.30;;;5.60;99.90;;;;;;5067777;28;20029;-85
2021/12/06 00:03:15;;;;;;;4.35;3.80;;;5.10;99.90;;;;;;5067881;28;20039;-85
2021/12/06 00:05:41;;;;;;;4.40;3.38;;;5.00;99.90;;;;;;5066955;28;20018;-85
2021/12/06 00:08:07;;;;;;;5.47;3.90;;;5.40;99.90;;;;;;5070199;28;20043;-85
2021/12/06 00:10:33;;;;;;;4.88;3.72;;;5.00;99.90;;;;;;5069478;28;20052;-86
2021/12/06 00:12:58;;;;;;;4.80;3.45;;;5.50;99.90;;;;;;5065979;28;20041;-86
2021/12/06 00:15:26;;;;;;;4.88;3.42;;;5.60;99.90;;;;;;5067337;28;20081;-86
2021/12/06 00:17:52;;;;;;;4.45;3.90;;;5.50;99.90;;;;;;5068121;28;20097;-85
2021/12/06 00:20:18;;;;;;;6.60;4.85;;;5.10;99.90;;;;;;5068252;28;20509;-85
2021/12/06 00:22:43;;;;;;;5.97;4.10;;;5.10;99.90;;;;;;5073053;28;20094;-85
2021/12/06 00:25:09;;;;;;;5.88;4.60;;;5.20;99.90;;;;;;5067463;28;20025;-85
2021/12/06 00:27:38;;;;;;;4.70;3.95;;;5.60;99.90;;;;;;5066782;28;20047;-85
2021/12/06 00:30:07;;;;;;;5.47;4.10;;;5.10;99.90;;;;;;5065947;28;20028;-85
2021/12/06 00:32:33;;;;;;;4.88;3.90;;;5.20;99.90;;;;;;5067614;28;20548;-85
2021/12/06 00:34:59;;;;;;;5.22;3.70;;;5.60;99.90;;;;;;5072041;28;20063;-85
2021/12/06 00:37:34;;;;;;;6.75;5.03;;;5.10;99.90;;;;;;5068872;28;20021;-86
2021/12/06 00:40:04;;;;;;;4.63;3.58;;;5.60;99.90;;;;;;5067105;28;20483;-85
2021/12/06 00:42:33;;;;;;;5.13;4.20;;;5.50;99.90;;;;;;5062532;28;20031;-86
2021/12/06 00:44:59;;;;;;;5.72;3.90;;;5.20;99.90;;;;;;5067019;28;20035;-86
2021/12/06 00:47:25;;;;;;;6.00;4.15;;;5.10;99.90;;;;;;5066099;28;20025;-86
2021/12/06 00:49:51;;;;;;;6.22;4.57;;;5.60;99.90;;;;;;5073524;28;20029;-85
2021/12/06 00:52:17;;;;;;;6.72;5.50;;;5.20;99.90;;;;;;5066366;28;20033;-86
2021/12/06 00:54:44;;;;;;;10.63;7.43;;;5.20;99.90;;;;;;5066851;28;20103;-85
2021/12/06 00:57:12;;;;;;;8.40;5.50;;;5.20;99.90;;;;;;5066558;28;20036;-85
2021/12/06 00:59:39;;;;;;;6.72;4.93;;;5.60;99.90;;;;;;5066885;28;20021;-86
2021/12/06 01:02:09;;;;;;;6.53;5.10;;;5.20;99.90;;;;;;5069861;28;20457;-85
2021/12/06 01:04:38;;;;;;;7.50;5.03;;;5.20;99.90;;;;;;5069316;28;20048;-86
2021/12/06 01:07:05;;;;;;;5.60;4.22;;;5.30;99.90;;;;;;5066148;28;20115;-85
2021/12/06 01:09:31;;;;;;;4.75;3.67;;;5.20;99.90;;;;;;5066105;28;20476;-86
2021/12/06 01:11:57;;;;;;;3.65;2.95;;;5.10;99.90;;;;;;5048420;28;20046;-85
2021/12/06 01:14:23;;;;;;;3.47;2.40;;;5.40;99.90;;;;;;5067200;28;20025;-85
2021/12/06 01:16:49;;;;;;;4.70;3.22;;;5.00;99.90;;;;;;5064186;28;20024;-85
2021/12/06 01:19:15;;;;;;;3.92;3.20;;;4.90;99.90;;;;;;5066284;28;20485;-85
2021/12/06 01:21:54;;;;;;;5.05;3.92;;;5.30;99.90;;;;;;5066074;28;20031;-85
2021/12/06 01:24:26;;;;;;;6.15;4.40;;;5.30;99.90;;;;;;5065998;28;20032;-85
2021/12/06 01:39:52;;;;;;;5.88;3.95;;;5.20;99.90;;;;;;5066231;28;20036;-86
2021/12/06 01:42:18;;;;;;;4.70;3.40;;;5.10;99.90;;;;;;5065572;28;20032;-85
2021/12/06 01:44:48;;;;;;;3.42;2.90;;;5.10;99.90;;;;;;5066154;28;20074;-86
2021/12/06 01:47:20;;;;;;;4.38;3.10;;;5.00;99.90;;;;;;5067286;28;20025;-85
2021/12/06 01:49:53;;;;;;;3.60;2.63;;;5.00;99.90;;;;;;5072037;28;20435;-86
2021/12/06 01:52:31;;;;;;;3.72;2.70;;;5.30;99.90;;;;;;5066234;28;20063;-84
2021/12/06 01:54:58;;;;;;;5.72;3.10;;;4.80;99.90;;;;;;5065471;28;20082;-86
2021/12/06 01:57:26;;;;;;;4.10;3.33;;;4.90;99.90;;;;;;5065755;28;20044;-86
2021/12/06 01:59:53;;;;;;;4.30;3.35;;;5.40;99.90;;;;;;5065812;28;20024;-86
2021/12/06 02:02:20;;;;;;;4.18;3.35;;;4.90;99.90;;;;;;5066663;28;20029;-85
2021/12/06 02:04:46;;;;;;;5.70;3.15;;;5.00;99.90;;;;;;5071355;28;20052;-85
2021/12/06 02:07:15;;;;;;;7.10;3.72;;;4.90;99.90;;;;;;5064259;28;20490;-86
2021/12/06 02:09:43;;;;;;;4.38;3.25;;;5.00;99.90;;;;;;5065072;28;20029;-86
2021/12/06 02:12:10;;;;;;;3.65;3.03;;;4.90;99.90;;;;;;5065331;28;20459;-85
2021/12/06 02:14:58;;;;;;;5.90;4.28;;;5.00;99.90;;;;;;5065581;28;20493;-86
2021/12/06 02:17:29;;;;;;;5.55;3.40;;;5.40;99.90;;;;;;5034294;28;20486;-85
2021/12/06 02:20:09;;;;;;;9.50;5.70;;;5.10;99.90;;;;;;5063993;28;20074;-86
2021/12/06 02:22:39;;;;;;;5.32;4.03;;;5.10;99.90;;;;;;5067301;28;20021;-86
2021/12/06 02:25:13;;;;;;;4.70;3.88;;;5.10;99.90;;;;;;5065731;28;20028;-85
2021/12/06 02:27:38;;;;;;;5.07;3.28;;;5.10;99.90;;;;;;5063070;28;20062;-85
2021/12/06 02:30:07;;;;;;;4.40;3.35;;;5.70;99.90;;;;;;5065461;28;20151;-85
2021/12/06 02:32:35;;;;;;;10.32;6.63;;;5.10;99.90;;;;;;5065695;28;20500;-85
2021/12/06 02:35:04;;;;;;;9.13;6.03;;;5.20;99.90;;;;;;5069762;28;20044;-86
2021/12/06 02:37:32;;;;;;;8.48;5.85;;;5.10;99.90;;;;;;5067807;28;20028;-86
2021/12/06 02:39:58;;;;;;;6.28;4.75;;;5.10;99.90;;;;;;5065726;28;20028;-86
2021/12/06 02:42:25;;;;;;;6.75;4.93;;;5.60;99.90;;;;;;5065356;28;20073;-85
2021/12/06 02:44:52;;;;;;;4.30;3.50;;;5.30;99.90;;;;;;5064435;28;20054;-85
2021/12/06 02:47:18;;;;;;;5.60;3.83;;;5.10;99.90;;;;;;5065263;28;20022;-85
2021/12/06 02:49:45;;;;;;;4.35;3.47;;;4.90;99.90;;;;;;5070238;28;20040;-86
2021/12/06 02:52:13;;;;;;;4.90;3.88;;;4.90;99.90;;;;;;5064796;28;20393;-86
2021/12/06 02:54:40;;;;;;;3.45;3.15;;;4.90;99.90;;;;;;5065238;28;20028;-85
2021/12/06 02:59:32;;;;;;;7.78;4.95;;;4.90;99.90;;;;;;5065221;28;20489;-85
2021/12/06 03:02:03;;;;;;;7.20;4.65;;;4.90;99.90;;;;;;5070053;28;20028;-86
2021/12/06 03:04:29;;;;;;;5.25;4.50;;;4.90;99.90;;;;;;5068320;28;20373;-86
2021/12/06 03:06:55;;;;;;;5.03;3.95;;;5.20;99.90;;;;;;5064745;28;20036;-85
2021/12/06 03:09:25;;;;;;;4.55;3.83;;;4.90;99.90;;;;;;5064959;28;20484;-85
2021/12/06 03:12:11;;;;;;;4.60;4.03;;;4.90;99.90;;;;;;5065085;28;20029;-85
2021/12/06 03:14:42;;;;;;;5.65;4.55;;;4.90;99.90;;;;;;5065285;28;20029;-85
2021/12/06 03:17:11;;;;;;;4.82;4.18;;;4.90;99.90;;;;;;5067383;28;20074;-86
2021/12/06 03:19:37;;;;;;;20.95;9.68;;;5.10;99.90;;;;;;5068540;28;20066;-86
2021/12/06 03:22:05;;;;;;;8.65;5.97;;;4.90;99.90;;;;;;5064334;28;20024;-85
2021/12/06 03:24:31;;;;;;;8.77;5.75;;;5.00;99.90;;;;;;5063805;28;20029;-85
2021/12/06 03:26:57;;;;;;;7.25;5.20;;;5.30;99.90;;;;;;5064740;28;20527;-85
2021/12/06 03:29:23;;;;;;;8.20;5.03;;;5.00;99.90;;;;;;5066299;28;20040;-85
2021/12/06 03:31:49;;;;;;;5.35;4.35;;;4.90;99.90;;;;;;5074467;28;20561;-86
2021/12/06 03:34:16;;;;;;;4.80;3.95;;;5.40;99.90;;;;;;5068649;28;20046;-85
2021/12/06 03:36:42;;;;;;;5.25;4.28;;;4.90;99.90;;;;;;5067753;28;20400;-86
2021/12/06 03:39:20;;;;;;;4.03;3.63;;;4.80;99.90;;;;;;5068573;28;20041;-85
2021/12/06 03:41:47;;;;;;;4.57;4.15;;;4.90;99.90;;;;;;5068419;28;20021;-85
2021/12/06 03:44:13;;;;;;;4.15;3.72;;;4.90;99.90;;;;;;5069965;28;20021;-86
2021/12/06 03:46:39;;;;;;;4.70;4.07;;;4.80;99.90;;;;;;5072735;28;20032;-86
2021/12/06 03:49:14;;;;;;;6.68;4.95;;;4.70;99.90;;;;;;5067630;28;20028;-85
2021/12/06 03:51:41;;;;;;;5.78;5.00;;;5.20;99.90;;;;;;5067835;28;20029;-85
2021/12/06 03:54:08;;;;;;;5.75;5.10;;;5.20;99.90;;;;;;5068085;28;20021;-85
2021/12/06 03:56:38;;;;;;;6.57;5.43;;;4.90;99.90;;;;;;5068300;28;20029;-85
2021/12/06 03:59:04;;;;;;;4.63;4.07;;;4.90;99.90;;;;;;5071382;28;20032;-86
2021/12/06 04:01:31;;;;;;;6.43;5.50;;;4.90;99.90;;;;;;5071040;28;20384;-86
2021/12/06 04:03:58;;;;;;;5.32;4.75;;;4.90;99.90;;;;;;5066362;28;20115;-85
2021/12/06 04:06:24;;;;;;;6.32;4.80;;;5.20;99.90;;;;;;5067719;28;20503;-86
2021/12/06 04:08:49;;;;;;;4.85;4.35;;;4.80;99.90;;;;;;5066729;28;20040;-86
2021/12/06 04:11:16;;;;;;;5.00;4.50;;;5.20;99.90;;;;;;5069010;28;20041;-85
2021/12/06 04:13:41;;;;;;;6.47;5.75;;;4.80;99.90;;;;;;5072854;28;20025;-85
2021/12/06 04:16:07;;;;;;;5.78;4.93;;;5.30;99.90;;;;;;5067555;28;20408;-85
2021/12/06 04:18:33;;;;;;;5.65;4.80;;;5.40;99.90;;;;;;5065805;28;20025;-84
2021/12/06 04:20:59;;;;;;;6.00;5.10;;;5.40;99.90;;;;;;5067718;28;20133;-86
2021/12/06 04:23:25;;;;;;;6.43;4.97;;;5.30;99.90;;;;;;5067601;28;20025;-85
2021/12/06 04:25:51;;;;;;;6.00;4.95;;;4.90;99.90;;;;;;5073897;28;20376;-86
2021/12/06 04:28:19;;;;;;;7.95;5.65;;;4.90;99.90;;;;;;5066988;28;20052;-85
2021/12/06 04:30:47;;;;;;;10.93;6.00;;;5.20;99.90;;;;;;5067339;28;20042;-86
2021/12/06 04:33:13;;;;;;;6.55;5.63;;;4.70;99.90;;;;;;5067257;28;20507;-85
2021/12/06 04:35:39;;;;;;;6.50;5.63;;;4.80;99.90;;;;;;5067703;28;20013;-86
2021/12/06 04:38:06;;;;;;;7.15;5.90;;;5.30;99.90;;;;;;5070502;28;20028;-85
2021/12/06 04:40:32;;;;;;;7.40;5.63;;;4.70;99.90;;;;;;5069826;28;20028;-86
2021/12/06 04:42:58;;;;;;;7.43;5.90;;;4.70;99.90;;;;;;5065619;28;20650;-85
2021/12/06 04:45:24;;;;;;;6.35;5.60;;;4.80;99.90;;;;;;5067338;28;20021;-86
2021/12/06 04:47:51;;;;;;;8.05;6.13;;;4.80;99.90;;;;;;5066898;28;20378;-85
2021/12/06 04:50:20;;;;;;;7.70;5.85;;;4.80;99.90;;;;;;5068046;28;20032;-85
2021/12/06 04:52:46;;;;;;;7.25;5.80;;;5.30;99.90;;;;;;5072750;28;20481;-85
2021/12/06 04:55:31;;;;;;;6.65;5.95;;;5.20;99.90;;;;;;5066982;28;20040;-85
2021/12/06 04:57:57;;;;;;;7.93;6.47;;;4.70;99.90;;;;;;5066948;28;20039;-85
2021/12/06 05:00:29;;;;;;;8.63;6.20;;;4.70;99.90;;;;;;5065348;28;20032;-86
2021/12/06 05:02:56;;;;;;;8.85;6.30;;;4.80;99.90;;;;;;5066508;28;20066;-85
2021/12/06 05:05:28;;;;;;;8.88;6.75;;;5.20;99.90;;;;;;5035289;28;20025;-85
2021/12/06 05:08:01;;;;;;;10.13;7.10;;;4.70;99.90;;;;;;5065418;28;20031;-85
2021/12/06 05:10:27;;;;;;;7.38;6.22;;;4.70;99.90;;;;;;5068981;28;20056;-85
2021/12/06 05:12:53;;;;;;;9.57;6.82;;;4.70;99.90;;;;;;5066339;28;20064;-86
2021/12/06 05:15:19;;;;;;;8.15;6.90;;;4.70;99.90;;;;;;5066282;28;20516;-85
2021/12/06 05:17:45;;;;;;;11.02;8.82;;;4.60;99.90;;;;;;5066635;28;20099;-85
2021/12/06 05:20:12;;;;;;;11.50;8.80;;;5.10;99.90;;;;;;5068294;28;20029;-85
2021/12/06 05:22:40;;;;;;;11.00;8.73;;;4.60;99.90;;;;;;5069892;28;20028;-85
2021/12/06 05:25:08;;;;;;;9.23;7.32;;;4.70;99.90;;;;;;5066358;28;20029;-85
2021/12/06 05:27:34;;;;;;;8.23;7.00;;;4.50;99.90;;;;;;5065839;28;20032;-85
2021/12/06 05:30:03;;;;;;;11.13;8.43;;;4.50;99.90;;;;;;5065996;28;20441;-86
2021/12/06 05:32:33;;;;;;;10.60;7.97;;;4.60;99.90;;;;;;5065927;28;20520;-86
2021/12/06 05:35:06;;;;;;;10.60;7.50;;;4.40;99.90;;;;;;5070836;28;20053;-85
2021/12/06 05:37:37;;;;;;;9.55;6.80;;;4.80;99.90;;;;;;5069917;28;20024;-86
2021/12/06 05:40:06;;;;;;;7.18;5.75;;;4.70;99.90;;;;;;5065915;28;20033;-86
2021/12/06 05:42:32;;;;;;;7.38;6.03;;;4.30;99.90;;;;;;5065852;28;20026;-85
2021/12/06 05:44:57;;;;;;;8.23;6.43;;;4.20;99.90;;;;;;5066153;28;20024;-85
2021/12/06 05:47:23;;;;;;;8.52;6.78;;;4.10;99.90;;;;;;5066271;28;20482;-86
2021/12/06 05:49:48;;;;;;;8.48;6.95;;;4.50;99.90;;;;;;5063633;28;20485;-86
2021/12/06 05:52:14;;;;;;;10.25;8.00;;;4.00;99.90;;;;;;5065439;28;20036;-85
2021/12/06 05:54:40;;;;;;;16.15;11.18;;;4.00;99.90;;;;;;5065900;28;20025;-85
2021/12/06 05:57:07;;;;;;;17.73;12.45;;;4.00;99.90;;;;;;5065636;28;20519;-85
2021/12/06 05:59:33;;;;;;;19.58;13.07;;;4.60;99.90;;;;;;5064219;28;20494;-86
2021/12/06 06:01:59;;;;;;;20.85;14.02;;;4.10;99.90;;;;;;5070190;28;20031;-85
2021/12/06 06:04:27;;;;;;;15.38;11.00;;;4.60;99.90;;;;;;5067721;28;20028;-86
2021/12/06 06:06:53;;;;;;;13.40;10.18;;;4.00;99.90;;;;;;5065967;28;20422;-86
2021/12/06 06:09:20;;;;;;;12.27;9.88;;;4.00;99.90;;;;;;5065528;28;20101;-85
2021/12/06 06:11:45;;;;;;;17.80;12.15;;;4.00;99.90;;;;;;5065575;28;20074;-85
2021/12/06 06:14:12;;;;;;;12.07;9.45;;;3.80;99.90;;;;;;5066924;28;20048;-86
2021/12/06 06:16:47;;;;;;;12.90;8.93;;;3.90;99.90;;;;;;5070251;28;20484;-85
2021/12/06 06:19:15;;;;;;;14.32;10.52;;;3.90;99.90;;;;;;5065737;28;20108;-86
2021/12/06 06:21:41;;;;;;;12.52;9.57;;;4.30;99.90;;;;;;5065321;28;20436;-85
2021/12/06 06:24:07;;;;;;;18.58;11.75;;;3.70;99.90;;;;;;5061537;28;20036;-85
2021/12/06 06:26:33;;;;;;;25.02;17.27;;;3.70;99.90;;;;;;5065418;28;20025;-86
2021/12/06 06:28:58;;;;;;;25.35;18.77;;;3.70;99.90;;;;;;5069656;28;20072;-85
2021/12/06 06:31:24;;;;;;;18.50;14.23;;;3.80;99.90;;;;;;5066911;28;20044;-86
2021/12/06 06:33:50;;;;;;;14.10;10.50;;;3.80;99.90;;;;;;5065423;28;20078;-85
2021/12/06 06:36:15;;;;;;;12.07;9.45;;;3.80;99.90;;;;;;5065350;28;20037;-84
2021/12/06 06:38:41;;;;;;;12.63;9.90;;;3.80;99.90;;;;;;5063984;28;20029;-86
2021/12/06 06:41:07;;;;;;;17.60;11.40;;;3.80;99.90;;;;;;5068003;28;20067;-85
2021/12/06 06:43:35;;;;;;;14.55;11.00;;;4.40;99.90;;;;;;5066986;28;20017;-85
2021/12/06 06:46:02;;;;;;;11.50;9.38;;;3.90;99.90;;;;;;5065109;28;20049;-84
2021/12/06 06:48:28;;;;;;;14.60;10.25;;;3.90;99.90;;;;;;5065471;28;20047;-85
2021/12/06 06:50:54;;;;;;;12.15;9.95;;;3.90;99.90;;;;;;5065396;28;20021;-85
2021/12/06 06:53:19;;;;;;;13.10;10.68;;;3.90;99.90;;;;;;5065225;28;20045;-86
2021/12/06 06:55:45;;;;;;;12.25;10.43;;;4.00;99.90;;;;;;5071444;28;20099;-85
2021/12/06 06:58:11;;;;;;;15.88;14.13;;;3.90;99.90;;;;;;5064815;28;20033;-85
2021/12/06 07:00:38;;;;;;;12.50;10.90;;;3.80;99.90;;;;;;5065047;28;20024;-86
2021/12/06 07:03:07;;;;;;;14.48;10.73;;;3.80;99.90;;;;;;5065036;28;20021;-85
2021/12/06 07:05:34;;;;;;;12.60;10.23;;;3.70;99.90;;;;;;5068338;28;20115;-86
2021/12/06 07:07:59;;;;;;;15.15;13.02;;;3.70;99.90;;;;;;5073815;28;20024;-85
2021/12/06 07:10:25;;;;;;;14.52;12.18;;;3.80;99.90;;;;;;5070622;28;20038;-84
2021/12/06 07:12:53;;;;;;;14.88;12.95;;;3.80;99.90;;;;;;5068232;28;20504;-85
2021/12/06 07:15:25;;;;;;;14.18;12.00;;;3.90;99.90;;;;;;5068589;28;20017;-85
2021/12/06 07:17:52;;;;;;;12.73;10.25;;;3.90;99.90;;;;;;5067545;28;20056;-85
2021/12/06 07:20:19;;;;;;;12.82;9.82;;;4.10;99.90;;;;;;5069728;28;20052;-84
2021/12/06 07:22:47;;;;;;;12.07;8.85;;;4.20;99.90;;;;;;5074261;28;20021;-84
2021/12/06 07:25:15;;;;;;;11.75;9.38;;;4.20;99.90;;;;;;5068367;28;20396;-85
2021/12/06 07:27:42;;;;;;;12.07;9.15;;;4.30;99.90;;;;;;5068056;28;20037;-85
2021/12/06 07:30:09;;;;;;;12.70;9.65;;;4.40;99.90;;;;;;5050288;28;20384;-85
2021/12/06 07:32:35;;;;;;;12.95;9.82;;;4.50;99.90;;;;;;5068462;28;20456;-86
2021/12/06 07:35:02;;;;;;;13.50;9.68;;;4.60;99.90;;;;;;5073099;28;20032;-84
2021/12/06 07:37:28;;;;;;;13.60;10.40;;;4.60;99.90;;;;;;5070862;28;20044;-85
2021/12/06 07:39:54;;;;;;;12.63;9.60;;;4.70;99.90;;;;;;5068476;28;20505;-86
2021/12/06 07:42:19;;;;;;;14.40;10.02;;;4.70;99.90;;;;;;5067811;28;20107;-86
2021/12/06 07:44:45;;;;;;;11.20;9.55;;;4.80;99.90;;;;;;5068009;28;20508;-87
2021/12/06 07:47:11;;;;;;;13.15;9.68;;;4.90;99.90;;;;;;5070058;28;20032;-85
2021/12/06 07:49:38;;;;;;;12.18;9.75;;;5.00;99.90;;;;;;5072739;28;20029;-85
2021/12/06 07:52:05;;;;;;;11.15;8.90;;;5.10;99.90;;;;;;5067820;28;20045;-85
2021/12/06 07:54:31;;;;;;;10.77;9.13;;;5.20;99.90;;;;;;5049953;28;20063;-86
2021/12/06 07:56:57;;;;;;;9.82;8.25;;;6.00;99.90;;;;;;5066588;28;20028;-86
2021/12/06 07:59:23;;;;;;;9.63;7.90;;;5.40;99.90;;;;;;5068105;28;20095;-90
2021/12/06 08:01:49;;;;;;;8.50;7.60;;;6.10;99.90;;;;;;5074115;28;20119;-87
2021/12/06 08:04:15;;;;;;;8.65;7.65;;;5.70;99.90;;;;;;5068275;28;20074;-87
2021/12/06 08:06:41;;;;;;;8.20;7.32;;;6.20;99.90;;;;;;5067079;28;20025;-87
2021/12/06 08:09:07;;;;;;;10.18;7.65;;;6.30;99.90;;;;;;5067886;28;20369;-86
2021/12/06 08:11:33;;;;;;;11.90;6.88;;;5.60;99.90;;;;;;5067195;28;20517;-86
2021/12/06 08:14:00;;;;;;;8.80;7.13;;;5.60;99.90;;;;;;5072277;28;20103;-86
2021/12/06 08:16:30;;;;;;;8.50;7.00;;;5.60;99.90;;;;;;5069515;28;20029;-86
2021/12/06 08:18:56;;;;;;;8.20;7.20;;;5.60;99.90;;;;;;5067375;28;20392;-86
2021/12/06 08:21:22;;;;;;;9.90;7.50;;;5.40;99.90;;;;;;5067741;28;20029;-86
2021/12/06 08:23:50;;;;;;;10.32;7.45;;;5.30;99.90;;;;;;5067603;28;20036;-86
2021/12/06 08:26:20;;;;;;;8.63;7.30;;;5.30;99.90;;;;;;5068863;28;20067;-87
2021/12/06 08:28:48;;;;;;;9.50;7.53;;;5.50;99.90;;;;;;5073463;28;20149;-81
2021/12/06 08:31:15;;;;;;;8.35;7.28;;;5.70;99.90;;;;;;5068873;28;20020;-86
2021/12/06 08:33:41;;;;;;;10.15;7.88;;;5.30;99.90;;;;;;5067089;28;20028;-84
2021/12/06 08:36:09;;;;;;;9.90;8.57;;;5.10;99.90;;;;;;5068923;28;20381;-91
2021/12/06 08:38:35;;;;;;;10.93;8.60;;;5.10;99.90;;;;;;5053185;28;20025;-87
2021/12/06 08:41:06;;;;;;;12.40;8.85;;;5.50;99.90;;;;;;5071151;28;20021;-87
2021/12/06 08:43:32;;;;;;;11.05;9.27;;;5.30;99.90;;;;;;5070678;28;20036;-87
2021/12/06 08:46:00;;;;;;;12.50;9.15;;;4.80;99.90;;;;;;5067074;28;20079;-87
2021/12/06 08:48:28;;;;;;;10.70;9.25;;;4.70;99.90;;;;;;5067106;28;20391;-88
2021/12/06 08:50:57;;;;;;;11.68;8.88;;;4.90;99.90;;;;;;5049498;28;20388;-88
2021/12/06 08:53:23;;;;;;;11.07;8.48;;;5.50;99.90;;;;;;5035584;28;20029;-88
2021/12/06 08:55:51;;;;;;;11.63;8.20;;;5.20;99.90;;;;;;5072723;28;20052;-89
2021/12/06 08:58:17;;;;;;;10.23;7.57;;;5.30;99.90;;;;;;5066760;28;20086;-88
2021/12/06 09:00:43;;;;;;;8.90;7.70;;;5.30;99.90;;;;;;5067365;28;20454;-87
2021/12/06 09:03:09;;;;;;;10.35;8.38;;;5.70;99.90;;;;;;5066705;28;20021;-87
2021/12/06 09:05:41;;;;;;;8.55;7.53;;;5.40;99.90;;;;;;5066752;28;20025;-88
2021/12/06 09:08:08;;;;;;;9.00;7.78;;;5.40;99.90;;;;;;5069030;28;20843;-90
2021/12/06 09:10:34;;;;;;;8.43;7.35;;;6.00;99.90;;;;;;5068799;28;20025;-89
2021/12/06 09:13:00;;;;;;;8.68;7.25;;;6.00;99.90;;;;;;5063558;28;20551;-87
2021/12/06 09:15:26;;;;;;;9.07;7.88;;;6.20;99.90;;;;;;5064975;28;20585;-87
2021/12/06 09:17:54;;;;;;;8.82;7.45;;;5.60;99.90;;;;;;5066675;28;20084;-86
2021/12/06 09:20:22;;;;;;;8.75;7.68;;;5.60;99.90;;;;;;5049318;28;20021;-87
2021/12/06 09:22:49;;;;;;;9.82;8.10;;;5.90;99.90;;;;;;5072328;28;20020;-88
2021/12/06 09:25:17;;;;;;;11.70;8.20;;;6.10;99.90;;;;;;5066280;28;20066;-88
2021/12/06 09:27:44;;;;;;;9.88;8.07;;;5.60;99.90;;;;;;5052217;28;20057;-88
2021/12/06 09:30:13;;;;;;;9.45;7.78;;;6.00;99.90;;;;;;5035177;28;20061;-87
2021/12/06 09:32:40;;;;;;;10.25;8.70;;;5.60;99.90;;;;;;5032364;28;20382;-87
2021/12/06 09:35:08;;;;;;;9.88;7.68;;;5.70;99.90;;;;;;5033292;28;20033;-87
2021/12/06 09:37:36;;;;;;;10.82;8.85;;;5.60;99.90;;;;;;5034532;28;20120;-87
2021/12/06 09:40:04;;;;;;;11.50;8.30;;;5.50;99.90;;;;;;5034611;28;20026;-87
2021/12/06 09:42:33;;;;;;;10.30;8.45;;;5.40;99.90;;;;;;5035113;28;20037;-87
2021/12/06 09:44:59;;;;;;;11.15;8.60;;;6.00;99.90;;;;;;5034599;28;20404;-87
2021/12/06 09:47:27;;;;;;;10.23;8.40;;;5.70;99.90;;;;;;5030380;28;20030;-88
2021/12/06 09:49:53;;;;;;;10.75;9.27;;;6.20;99.90;;;;;;5036387;28;20025;-87
2021/12/06 09:52:21;;;;;;;11.27;9.02;;;6.10;99.90;;;;;;5032704;28;20505;-87
2021/12/06 09:54:46;;;;;;;9.02;8.00;;;6.10;99.90;;;;;;5032963;28;20437;-87
2021/12/06 09:57:13;;;;;;;9.68;7.70;;;5.80;99.90;;;;;;5033048;28;20033;-87
2021/12/06 09:59:41;;;;;;;8.75;7.72;;;6.10;99.90;;;;;;5032529;28;20025;-87
2021/12/06 10:02:13;;;;;;;11.88;8.75;;;5.70;99.90;;;;;;5032173;28;20057;-87
2021/12/06 10:04:42;;;;;;;9.25;7.95;;;5.80;99.90;;;;;;5035052;28;20378;-87
2021/12/06 10:07:09;;;;;;;9.55;7.63;;;5.80;99.90;;;;;;5034189;28;20025;-88
2021/12/06 10:09:37;;;;;;;10.80;8.57;;;6.10;99.90;;;;;;5034508;28;20025;-87
2021/12/06 10:12:04;;;;;;;9.20;7.95;;;6.80;99.90;;;;;;5016313;28;20451;-88
2021/12/06 10:14:30;;;;;;;10.60;8.15;;;6.70;99.90;;;;;;5030536;28;20104;-88
2021/12/06 10:16:56;;;;;;;11.48;8.02;;;7.00;99.90;;;;;;5035263;28;20021;-87
2021/12/06 10:19:23;;;;;;;10.45;7.53;;;7.10;99.90;;;;;;5033514;28;20028;-88
2021/12/06 10:21:49;;;;;;;10.55;6.97;;;6.70;99.90;;;;;;5034114;28;20070;-87
2021/12/06 10:24:19;;;;;;;11.15;7.13;;;7.30;99.90;;;;;;5034252;28;20021;-87
2021/12/06 10:26:46;;;;;;;8.38;6.60;;;7.40;99.90;;;;;;5032560;28;20087;-87
2021/12/06 10:29:22;;;;;;;8.07;7.18;;;7.40;99.90;;;;;;5065989;28;20033;-87
2021/12/06 10:31:51;;;;;;;10.13;7.68;;;6.90;99.90;;;;;;5071529;28;20079;-86
2021/12/06 10:34:19;;;;;;;10.20;7.85;;;7.10;99.90;;;;;;5063738;28;20033;-88
2021/12/06 10:36:46;;;;;;;8.90;7.30;;;7.00;99.90;;;;;;5064836;28;20031;-88
2021/12/06 10:39:11;;;;;;;10.43;7.40;;;6.70;99.90;;;;;;5065812;28;20028;-87
2021/12/06 10:41:38;;;;;;;11.40;8.60;;;7.10;99.90;;;;;;5069494;28;20407;-88
2021/12/06 10:44:11;;;;;;;11.10;7.28;;;7.30;99.90;;;;;;5072738;28;20024;-87
2021/12/06 10:46:40;;;;;;;11.57;8.13;;;6.50;99.90;;;;;;5072767;28;20120;-87
2021/12/06 10:49:08;;;;;;;8.93;7.97;;;6.40;99.90;;;;;;5069554;28;20028;-87
2021/12/06 10:51:35;;;;;;;10.63;7.47;;;6.50;99.90;;;;;;5068630;28;20052;-88
2021/12/06 10:54:16;;;;;;;10.65;6.97;;;6.50;99.90;;;;;;5069047;28;20506;-88
2021/12/06 10:56:46;;;;;;;10.05;7.22;;;6.40;99.90;;;;;;5070096;28;20059;-87
2021/12/06 10:59:24;;;;;;;10.38;7.70;;;6.60;99.90;;;;;;5071261;28;20082;-87
2021/12/06 11:01:54;;;;;;;9.40;8.02;;;6.60;99.90;;;;;;5075868;28;20024;-87
2021/12/06 11:04:23;;;;;;;9.32;7.55;;;6.90;99.90;;;;;;5069173;28;20052;-87
2021/12/06 11:06:52;;;;;;;8.63;7.38;;;7.60;99.90;;;;;;5068047;28;20131;-87
2021/12/06 11:09:22;;;;;;;9.05;7.43;;;7.70;99.90;;;;;;5068861;28;20470;-85
2021/12/06 11:11:50;;;;;;;8.07;6.80;;;7.70;99.90;;;;;;5067431;28;20054;-85
2021/12/06 11:14:31;;;;;;;9.88;7.68;;;7.50;99.90;;;;;;5069768;28;20036;-85
2021/12/06 11:17:01;;;;;;;7.85;7.00;;;7.10;99.90;;;;;;5067172;28;20392;-85
2021/12/06 11:19:29;;;;;;;7.85;6.80;;;7.00;99.90;;;;;;5068175;28;20111;-86
2021/12/06 11:22:10;;;;;;;9.30;6.90;;;6.90;99.90;;;;;;5068900;28;20127;-86
2021/12/06 11:24:43;;;;;;;9.07;7.05;;;6.90;99.90;;;;;;5068720;28;20032;-85
2021/12/06 11:27:10;;;;;;;9.50;6.80;;;7.40;99.90;;;;;;5069814;28;20043;-88
2021/12/06 11:29:41;;;;;;;7.68;6.57;;;7.20;99.90;;;;;;5067979;28;20017;-87
2021/12/06 11:32:20;;;;;;;8.38;6.60;;;7.10;99.90;;;;;;5025276;28;20502;-84
2021/12/06 11:34:56;;;;;;;8.77;7.45;;;7.10;99.90;;;;;;5049503;28;20033;-85
2021/12/06 11:37:32;;;;;;;8.43;6.95;;;7.30;99.90;;;;;;5039807;28;20048;-85
2021/12/06 11:40:04;;;;;;;10.98;7.10;;;7.50;99.90;;;;;;5038394;28;20083;-91
2021/12/06 11:42:30;;;;;;;7.47;6.60;;;7.40;99.90;;;;;;5043877;28;20032;-90
2021/12/06 11:44:56;;;;;;;8.18;7.15;;;7.50;99.90;;;;;;5039692;28;20116;-89
2021/12/06 11:47:21;;;;;;;13.60;7.28;;;7.40;99.90;;;;;;5034901;28;20112;-88
2021/12/06 11:49:52;;;;;;;7.20;6.38;;;7.30;99.90;;;;;;5020469;28;20029;-88
2021/12/06 11:52:24;;;;;;;8.55;6.80;;;7.30;99.90;;;;;;5039346;28;20535;-89
2021/12/06 11:54:58;;;;;;;7.70;6.15;;;7.10;99.90;;;;;;5039235;28;20026;-87
2021/12/06 11:57:28;;;;;;;8.38;7.05;;;7.10;99.90;;;;;;5039350;28;20108;-89
2021/12/06 12:00:01;;;;;;;7.72;6.40;;;7.00;99.90;;;;;;5038773;28;20066;-88
2021/12/06 12:02:44;;;;;;;7.70;6.57;;;7.10;99.90;;;;;;5036186;28;20026;-90
2021/12/06 12:05:20;;;;;;;8.00;6.57;;;6.90;99.90;;;;;;5050384;28;20068;-88
2021/12/06 12:08:05;;;;;;;7.15;6.35;;;6.90;99.90;;;;;;5049684;28;20040;-88
2021/12/06 12:10:33;;;;;;;9.95;7.82;;;7.00;99.90;;;;;;5048966;28;20029;-89
2021/12/06 12:12:59;;;;;;;9.27;7.80;;;7.60;99.90;;;;;;5046669;28;20043;-88
2021/12/06 12:15:25;;;;;;;8.40;7.13;;;7.20;99.90;;;;;;5047356;28;20475;-88
2021/12/06 12:17:51;;;;;;;7.50;6.38;;;7.10;99.90;;;;;;5047866;28;20022;-89
2021/12/06 12:20:22;;;;;;;8.63;6.47;;;7.60;99.90;;;;;;5050910;28;20025;-85
2021/12/06 12:22:50;;;;;;;10.25;8.85;;;7.40;99.90;;;;;;5072798;28;20579;-85
2021/12/06 12:25:24;;;;;;;13.25;11.95;;;7.40;99.90;;;;;;5067738;28;20038;-94
2021/12/06 12:30:31;;;;;;;6.93;5.95;;;7.80;99.90;;;;;;5068133;28;20028;-92
2021/12/06 12:32:57;;;;;;;6.72;5.28;;;7.70;99.90;;;;;;5068030;28;20111;-96
2021/12/06 12:35:24;;;;;;;6.45;5.80;;;7.40;99.90;;;;;;5018625;28;20032;-88
2021/12/06 12:37:51;;;;;;;7.07;5.40;;;7.50;99.90;;;;;;5073316;28;20507;-85
2021/12/06 12:40:20;;;;;;;8.23;6.43;;;7.50;99.90;;;;;;5067072;28;20610;-85
2021/12/06 12:42:57;;;;;;;7.85;6.45;;;7.70;99.90;;;;;;5066892;28;20028;-85
2021/12/06 12:45:22;;;;;;;10.20;6.50;;;8.00;99.90;;;;;;5066743;28;20557;-89
2021/12/06 12:47:55;;;;;;;8.52;7.05;;;8.40;99.90;;;;;;5067571;28;20025;-87
2021/12/06 12:50:21;;;;;;;7.97;6.25;;;8.50;99.90;;;;;;5067500;28;20070;-86
2021/12/06 12:52:54;;;;;;;8.00;6.57;;;8.40;99.90;;;;;;5072533;28;20033;-86
2021/12/06 12:55:51;;;;;;;8.38;6.82;;;8.70;99.90;;;;;;5068069;28;20508;-87
2021/12/06 12:58:22;;;;;;;7.95;6.88;;;8.50;99.90;;;;;;5047302;28;20076;-87
2021/12/06 13:01:01;;;;;;;8.30;6.40;;;8.20;99.90;;;;;;5066373;28;20021;-84
2021/12/06 13:03:41;;;;;;;8.57;6.70;;;8.40;99.90;;;;;;5065689;28;20033;-84
2021/12/06 13:06:21;;;;;;;8.68;7.03;;;8.00;99.90;;;;;;5066767;28;20063;-84
2021/12/06 13:08:50;;;;;;;9.23;7.00;;;8.00;99.90;;;;;;5065551;28;20026;-85
2021/12/06 13:11:17;;;;;;;10.50;7.22;;;8.20;99.90;;;;;;5067526;28;20029;-84
2021/12/06 13:13:48;;;;;;;10.90;7.38;;;8.40;99.90;;;;;;5071917;28;20036;-84
2021/12/06 13:16:58;;;;;;;7.22;6.43;;;8.30;99.90;;;;;;5066245;28;20024;-84